sensor_id;sensor_type;location;lat;lon;timestamp;P1;durP1;ratioP1;P2;durP2;ratioP2
11675;SDS011;5894;42.768;23.404;2023-04-24T00:01:59;5.10;;;3.97;;
11675;SDS011;5894;42.768;23.404;2023-04-24T00:04:26;4.32;;;3.72;;
11675;SDS011;5894;42.768;23.404;2023-04-24T00:06:52;4.22;;;3.83;;
11675;SDS011;5894;42.768;23.404;2023-04-24T00:09:22;4.10;;;3.10;;
11675;SDS011;5894;42.768;23.404;2023-04-24T00:11:49;5.93;;;4.15;;
11675;SDS011;5894;42.768;23.404;2023-04-24T00:14:16;5.93;;;3.63;;
11675;SDS011;5894;42.768;23.404;2023-04-24T00:16:44;6.63;;;3.95;;
11675;SDS011;5894;42.768;23.404;2023-04-24T00:19:11;3.87;;;3.47;;
11675;SDS011;5894;42.768;23.404;2023-04-24T00:21:38;6.47;;;3.20;;
11675;SDS011;5894;42.768;23.404;2023-04-24T00:24:05;7.27;;;3.57;;
11675;SDS011;5894;42.768;23.404;2023-04-24T00:26:34;8.27;;;3.88;;
11675;SDS011;5894;42.768;23.404;2023-04-24T00:29:01;6.10;;;3.80;;
11675;SDS011;5894;42.768;23.404;2023-04-24T00:31:28;7.53;;;3.65;;
11675;SDS011;5894;42.768;23.404;2023-04-24T00:33:56;3.95;;;3.17;;
11675;SDS011;5894;42.768;23.404;2023-04-24T00:36:23;4.57;;;3.50;;
11675;SDS011;5894;42.768;23.404;2023-04-24T00:38:52;7.10;;;3.50;;
11675;SDS011;5894;42.768;23.404;2023-04-24T00:41:18;7.97;;;3.50;;
11675;SDS011;5894;42.768;23.404;2023-04-24T00:43:46;6.97;;;3.90;;
11675;SDS011;5894;42.768;23.404;2023-04-24T00:46:13;5.67;;;3.67;;
11675;SDS011;5894;42.768;23.404;2023-04-24T00:48:40;4.40;;;3.90;;
11675;SDS011;5894;42.768;23.404;2023-04-24T00:51:08;5.00;;;3.73;;
11675;SDS011;5894;42.768;23.404;2023-04-24T00:53:35;4.53;;;4.07;;
11675;SDS011;5894;42.768;23.404;2023-04-24T00:56:02;5.00;;;4.00;;
11675;SDS011;5894;42.768;23.404;2023-04-24T00:58:29;5.37;;;4.03;;
11675;SDS011;5894;42.768;23.404;2023-04-24T01:00:57;4.80;;;4.17;;
11675;SDS011;5894;42.768;23.404;2023-04-24T01:03:26;7.53;;;4.23;;
11675;SDS011;5894;42.768;23.404;2023-04-24T01:05:57;6.73;;;4.67;;
11675;SDS011;5894;42.768;23.404;2023-04-24T01:08:26;5.67;;;4.03;;
11675;SDS011;5894;42.768;23.404;2023-04-24T01:10:55;6.13;;;4.37;;
11675;SDS011;5894;42.768;23.404;2023-04-24T01:13:23;7.37;;;4.70;;
11675;SDS011;5894;42.768;23.404;2023-04-24T01:15:50;7.60;;;4.67;;
11675;SDS011;5894;42.768;23.404;2023-04-24T01:18:17;5.90;;;4.67;;
11675;SDS011;5894;42.768;23.404;2023-04-24T01:20:48;8.43;;;4.57;;
11675;SDS011;5894;42.768;23.404;2023-04-24T01:23:20;4.97;;;4.23;;
11675;SDS011;5894;42.768;23.404;2023-04-24T01:25:47;7.40;;;4.97;;
11675;SDS011;5894;42.768;23.404;2023-04-24T01:28:15;6.18;;;4.75;;
11675;SDS011;5894;42.768;23.404;2023-04-24T01:30:42;6.40;;;4.83;;
11675;SDS011;5894;42.768;23.404;2023-04-24T01:33:09;5.20;;;4.53;;
11675;SDS011;5894;42.768;23.404;2023-04-24T01:35:36;6.20;;;4.77;;
11675;SDS011;5894;42.768;23.404;2023-04-24T01:38:03;7.23;;;4.90;;
11675;SDS011;5894;42.768;23.404;2023-04-24T01:40:32;7.23;;;4.67;;
11675;SDS011;5894;42.768;23.404;2023-04-24T01:43:00;6.90;;;4.37;;
11675;SDS011;5894;42.768;23.404;2023-04-24T01:45:29;7.68;;;4.80;;
11675;SDS011;5894;42.768;23.404;2023-04-24T01:47:56;6.40;;;4.45;;
11675;SDS011;5894;42.768;23.404;2023-04-24T01:50:23;6.03;;;4.80;;
11675;SDS011;5894;42.768;23.404;2023-04-24T01:52:50;9.07;;;4.60;;
11675;SDS011;5894;42.768;23.404;2023-04-24T01:55:17;8.20;;;4.97;;
11675;SDS011;5894;42.768;23.404;2023-04-24T01:57:45;9.30;;;4.83;;
11675;SDS011;5894;42.768;23.404;2023-04-24T02:00:12;6.00;;;4.63;;
11675;SDS011;5894;42.768;23.404;2023-04-24T02:02:40;8.53;;;4.73;;
11675;SDS011;5894;42.768;23.404;2023-04-24T02:05:08;5.93;;;5.07;;
11675;SDS011;5894;42.768;23.404;2023-04-24T02:07:36;7.43;;;5.13;;
11675;SDS011;5894;42.768;23.404;2023-04-24T02:10:03;8.23;;;5.50;;
11675;SDS011;5894;42.768;23.404;2023-04-24T02:12:30;8.13;;;5.23;;
11675;SDS011;5894;42.768;23.404;2023-04-24T02:14:59;8.77;;;5.23;;
11675;SDS011;5894;42.768;23.404;2023-04-24T02:17:26;6.90;;;5.23;;
11675;SDS011;5894;42.768;23.404;2023-04-24T02:19:53;12.20;;;5.90;;
11675;SDS011;5894;42.768;23.404;2023-04-24T02:22:19;7.70;;;5.73;;
11675;SDS011;5894;42.768;23.404;2023-04-24T02:24:46;9.20;;;5.97;;
11675;SDS011;5894;42.768;23.404;2023-04-24T02:27:14;8.40;;;7.20;;
11675;SDS011;5894;42.768;23.404;2023-04-24T02:29:41;10.13;;;7.70;;
11675;SDS011;5894;42.768;23.404;2023-04-24T02:32:10;13.57;;;7.60;;
11675;SDS011;5894;42.768;23.404;2023-04-24T02:34:37;9.77;;;6.50;;
11675;SDS011;5894;42.768;23.404;2023-04-24T02:37:04;11.37;;;6.50;;
11675;SDS011;5894;42.768;23.404;2023-04-24T02:39:31;13.37;;;5.90;;
11675;SDS011;5894;42.768;23.404;2023-04-24T02:41:57;9.17;;;5.50;;
11675;SDS011;5894;42.768;23.404;2023-04-24T02:44:25;6.30;;;5.00;;
11675;SDS011;5894;42.768;23.404;2023-04-24T02:46:52;9.10;;;5.53;;
11675;SDS011;5894;42.768;23.404;2023-04-24T02:49:20;8.83;;;5.63;;
11675;SDS011;5894;42.768;23.404;2023-04-24T02:51:47;6.10;;;5.47;;
11675;SDS011;5894;42.768;23.404;2023-04-24T02:54:13;6.47;;;5.50;;
11675;SDS011;5894;42.768;23.404;2023-04-24T02:56:40;6.80;;;5.87;;
11675;SDS011;5894;42.768;23.404;2023-04-24T02:59:08;7.93;;;5.90;;
11675;SDS011;5894;42.768;23.404;2023-04-24T03:01:35;6.67;;;5.43;;
11675;SDS011;5894;42.768;23.404;2023-04-24T03:04:02;7.00;;;5.90;;
11675;SDS011;5894;42.768;23.404;2023-04-24T03:06:30;9.70;;;6.60;;
11675;SDS011;5894;42.768;23.404;2023-04-24T03:08:58;8.07;;;6.63;;
11675;SDS011;5894;42.768;23.404;2023-04-24T03:11:24;9.03;;;6.03;;
11675;SDS011;5894;42.768;23.404;2023-04-24T03:13:51;8.00;;;6.10;;
11675;SDS011;5894;42.768;23.404;2023-04-24T03:16:18;7.07;;;5.70;;
11675;SDS011;5894;42.768;23.404;2023-04-24T03:18:45;9.60;;;5.43;;
11675;SDS011;5894;42.768;23.404;2023-04-24T03:21:13;7.43;;;5.80;;
11675;SDS011;5894;42.768;23.404;2023-04-24T03:23:42;7.93;;;5.50;;
11675;SDS011;5894;42.768;23.404;2023-04-24T03:26:09;7.20;;;5.73;;
11675;SDS011;5894;42.768;23.404;2023-04-24T03:28:42;7.77;;;6.17;;
11675;SDS011;5894;42.768;23.404;2023-04-24T03:31:09;10.53;;;7.40;;
11675;SDS011;5894;42.768;23.404;2023-04-24T03:33:37;9.90;;;7.40;;
11675;SDS011;5894;42.768;23.404;2023-04-24T03:36:05;9.43;;;7.23;;
11675;SDS011;5894;42.768;23.404;2023-04-24T03:38:37;9.43;;;6.87;;
11675;SDS011;5894;42.768;23.404;2023-04-24T03:41:38;11.17;;;7.33;;
11675;SDS011;5894;42.768;23.404;2023-04-24T03:44:19;13.00;;;7.27;;
11675;SDS011;5894;42.768;23.404;2023-04-24T03:46:46;8.40;;;6.47;;
11675;SDS011;5894;42.768;23.404;2023-04-24T03:49:14;9.20;;;6.73;;
11675;SDS011;5894;42.768;23.404;2023-04-24T03:51:43;11.83;;;7.00;;
11675;SDS011;5894;42.768;23.404;2023-04-24T03:54:16;13.43;;;9.70;;
11675;SDS011;5894;42.768;23.404;2023-04-24T03:56:45;15.27;;;12.83;;
11675;SDS011;5894;42.768;23.404;2023-04-24T03:59:12;14.87;;;12.77;;
11675;SDS011;5894;42.768;23.404;2023-04-24T04:01:41;12.70;;;11.13;;
11675;SDS011;5894;42.768;23.404;2023-04-24T04:04:16;11.00;;;8.70;;
11675;SDS011;5894;42.768;23.404;2023-04-24T04:06:44;10.37;;;7.87;;
11675;SDS011;5894;42.768;23.404;2023-04-24T04:09:12;8.93;;;7.30;;
11675;SDS011;5894;42.768;23.404;2023-04-24T04:11:39;11.17;;;7.17;;
11675;SDS011;5894;42.768;23.404;2023-04-24T04:14:07;11.90;;;7.23;;
11675;SDS011;5894;42.768;23.404;2023-04-24T04:16:37;11.20;;;7.90;;
11675;SDS011;5894;42.768;23.404;2023-04-24T04:19:06;10.50;;;8.00;;
11675;SDS011;5894;42.768;23.404;2023-04-24T04:21:33;9.13;;;7.83;;
11675;SDS011;5894;42.768;23.404;2023-04-24T04:24:22;13.73;;;8.00;;
11675;SDS011;5894;42.768;23.404;2023-04-24T04:26:51;11.53;;;8.57;;
11675;SDS011;5894;42.768;23.404;2023-04-24T04:29:30;30.93;;;12.47;;
11675;SDS011;5894;42.768;23.404;2023-04-24T04:32:01;20.87;;;10.90;;
11675;SDS011;5894;42.768;23.404;2023-04-24T04:34:28;27.73;;;11.17;;
11675;SDS011;5894;42.768;23.404;2023-04-24T04:36:56;23.43;;;10.03;;
11675;SDS011;5894;42.768;23.404;2023-04-24T04:39:50;22.60;;;9.70;;
11675;SDS011;5894;42.768;23.404;2023-04-24T04:42:22;18.30;;;8.40;;
11675;SDS011;5894;42.768;23.404;2023-04-24T04:44:50;15.20;;;7.80;;
11675;SDS011;5894;42.768;23.404;2023-04-24T04:47:22;16.40;;;10.10;;
11675;SDS011;5894;42.768;23.404;2023-04-24T04:49:51;16.17;;;10.03;;
11675;SDS011;5894;42.768;23.404;2023-04-24T04:52:22;14.47;;;8.37;;
11675;SDS011;5894;42.768;23.404;2023-04-24T04:54:58;13.07;;;8.27;;
11675;SDS011;5894;42.768;23.404;2023-04-24T04:57:37;12.70;;;7.10;;
11675;SDS011;5894;42.768;23.404;2023-04-24T05:00:06;13.10;;;7.10;;
11675;SDS011;5894;42.768;23.404;2023-04-24T05:02:44;9.87;;;6.83;;
11675;SDS011;5894;42.768;23.404;2023-04-24T05:05:11;9.57;;;6.73;;
11675;SDS011;5894;42.768;23.404;2023-04-24T05:07:38;10.10;;;6.40;;
11675;SDS011;5894;42.768;23.404;2023-04-24T05:10:05;8.30;;;5.93;;
11675;SDS011;5894;42.768;23.404;2023-04-24T05:12:33;9.70;;;6.60;;
11675;SDS011;5894;42.768;23.404;2023-04-24T05:15:01;12.87;;;6.40;;
11675;SDS011;5894;42.768;23.404;2023-04-24T05:17:30;8.57;;;6.57;;
11675;SDS011;5894;42.768;23.404;2023-04-24T05:19:58;12.67;;;6.23;;
11675;SDS011;5894;42.768;23.404;2023-04-24T05:22:26;15.55;;;6.75;;
11675;SDS011;5894;42.768;23.404;2023-04-24T05:24:53;8.88;;;7.00;;
11675;SDS011;5894;42.768;23.404;2023-04-24T05:27:32;12.43;;;6.43;;
11675;SDS011;5894;42.768;23.404;2023-04-24T05:30:01;6.22;;;5.63;;
11675;SDS011;5894;42.768;23.404;2023-04-24T05:32:30;9.85;;;6.40;;
11675;SDS011;5894;42.768;23.404;2023-04-24T05:34:56;10.52;;;5.90;;
11675;SDS011;5894;42.768;23.404;2023-04-24T05:37:24;7.57;;;5.63;;
11675;SDS011;5894;42.768;23.404;2023-04-24T05:39:51;10.02;;;5.68;;
11675;SDS011;5894;42.768;23.404;2023-04-24T05:42:18;7.45;;;5.32;;
11675;SDS011;5894;42.768;23.404;2023-04-24T05:44:45;10.20;;;6.20;;
11675;SDS011;5894;42.768;23.404;2023-04-24T05:47:12;13.48;;;5.97;;
11675;SDS011;5894;42.768;23.404;2023-04-24T05:49:40;6.60;;;5.35;;
11675;SDS011;5894;42.768;23.404;2023-04-24T05:52:07;10.18;;;5.78;;
11675;SDS011;5894;42.768;23.404;2023-04-24T05:54:36;8.68;;;5.85;;
11675;SDS011;5894;42.768;23.404;2023-04-24T05:57:03;7.80;;;4.75;;
11675;SDS011;5894;42.768;23.404;2023-04-24T05:59:47;6.47;;;4.85;;
11675;SDS011;5894;42.768;23.404;2023-04-24T06:02:18;6.43;;;4.72;;
11675;SDS011;5894;42.768;23.404;2023-04-24T06:04:46;7.50;;;5.03;;
11675;SDS011;5894;42.768;23.404;2023-04-24T06:07:13;7.57;;;4.90;;
11675;SDS011;5894;42.768;23.404;2023-04-24T06:09:42;9.35;;;5.13;;
11675;SDS011;5894;42.768;23.404;2023-04-24T06:12:10;9.15;;;5.47;;
11675;SDS011;5894;42.768;23.404;2023-04-24T06:14:49;9.73;;;6.10;;
11675;SDS011;5894;42.768;23.404;2023-04-24T06:17:20;10.02;;;6.43;;
11675;SDS011;5894;42.768;23.404;2023-04-24T06:19:48;14.70;;;7.72;;
11675;SDS011;5894;42.768;23.404;2023-04-24T06:22:16;9.73;;;7.05;;
11675;SDS011;5894;42.768;23.404;2023-04-24T06:24:42;18.38;;;7.30;;
11675;SDS011;5894;42.768;23.404;2023-04-24T06:27:09;9.70;;;6.40;;
11675;SDS011;5894;42.768;23.404;2023-04-24T06:29:39;16.65;;;5.65;;
11675;SDS011;5894;42.768;23.404;2023-04-24T06:32:06;9.60;;;5.32;;
11675;SDS011;5894;42.768;23.404;2023-04-24T06:34:32;13.30;;;7.22;;
11675;SDS011;5894;42.768;23.404;2023-04-24T06:37:02;12.45;;;7.40;;
11675;SDS011;5894;42.768;23.404;2023-04-24T06:39:28;9.30;;;5.97;;
11675;SDS011;5894;42.768;23.404;2023-04-24T06:41:55;7.95;;;5.32;;
11675;SDS011;5894;42.768;23.404;2023-04-24T06:44:23;12.80;;;5.82;;
11675;SDS011;5894;42.768;23.404;2023-04-24T06:46:50;6.80;;;5.18;;
11675;SDS011;5894;42.768;23.404;2023-04-24T06:49:16;8.80;;;5.28;;
11675;SDS011;5894;42.768;23.404;2023-04-24T06:51:43;9.27;;;5.63;;
11675;SDS011;5894;42.768;23.404;2023-04-24T06:54:11;8.82;;;4.35;;
11675;SDS011;5894;42.768;23.404;2023-04-24T06:56:38;8.02;;;6.00;;
11675;SDS011;5894;42.768;23.404;2023-04-24T06:59:05;10.60;;;5.53;;
11675;SDS011;5894;42.768;23.404;2023-04-24T07:01:32;7.22;;;5.10;;
11675;SDS011;5894;42.768;23.404;2023-04-24T07:03:58;10.30;;;5.82;;
11675;SDS011;5894;42.768;23.404;2023-04-24T07:06:25;11.68;;;5.50;;
11675;SDS011;5894;42.768;23.404;2023-04-24T07:08:52;12.80;;;5.68;;
11675;SDS011;5894;42.768;23.404;2023-04-24T07:11:21;12.98;;;6.97;;
11675;SDS011;5894;42.768;23.404;2023-04-24T07:13:48;13.55;;;6.47;;
11675;SDS011;5894;42.768;23.404;2023-04-24T07:16:15;10.27;;;6.80;;
11675;SDS011;5894;42.768;23.404;2023-04-24T07:18:42;8.65;;;5.30;;
11675;SDS011;5894;42.768;23.404;2023-04-24T07:21:09;11.85;;;6.05;;
11675;SDS011;5894;42.768;23.404;2023-04-24T07:23:36;7.45;;;5.38;;
11675;SDS011;5894;42.768;23.404;2023-04-24T07:26:03;8.75;;;5.63;;
11675;SDS011;5894;42.768;23.404;2023-04-24T07:28:31;6.88;;;5.50;;
11675;SDS011;5894;42.768;23.404;2023-04-24T07:30:58;7.60;;;5.63;;
11675;SDS011;5894;42.768;23.404;2023-04-24T07:33:25;10.07;;;5.40;;
11675;SDS011;5894;42.768;23.404;2023-04-24T07:35:52;10.23;;;5.78;;
11675;SDS011;5894;42.768;23.404;2023-04-24T07:38:19;10.95;;;5.60;;
11675;SDS011;5894;42.768;23.404;2023-04-24T07:40:47;11.25;;;5.57;;
11675;SDS011;5894;42.768;23.404;2023-04-24T07:43:14;11.15;;;5.60;;
11675;SDS011;5894;42.768;23.404;2023-04-24T07:45:42;8.15;;;5.10;;
11675;SDS011;5894;42.768;23.404;2023-04-24T07:48:09;10.80;;;5.60;;
11675;SDS011;5894;42.768;23.404;2023-04-24T07:50:36;9.93;;;4.78;;
11675;SDS011;5894;42.768;23.404;2023-04-24T07:53:02;4.97;;;4.13;;
11675;SDS011;5894;42.768;23.404;2023-04-24T07:55:29;7.72;;;4.57;;
11675;SDS011;5894;42.768;23.404;2023-04-24T07:57:56;9.65;;;5.18;;
11675;SDS011;5894;42.768;23.404;2023-04-24T08:00:23;10.10;;;4.72;;
11675;SDS011;5894;42.768;23.404;2023-04-24T08:02:51;5.53;;;4.53;;
11675;SDS011;5894;42.768;23.404;2023-04-24T08:05:18;7.63;;;4.68;;
11675;SDS011;5894;42.768;23.404;2023-04-24T08:07:45;9.70;;;4.60;;
11675;SDS011;5894;42.768;23.404;2023-04-24T08:10:14;7.15;;;4.68;;
11675;SDS011;5894;42.768;23.404;2023-04-24T08:12:40;5.72;;;4.38;;
11675;SDS011;5894;42.768;23.404;2023-04-24T08:15:08;6.80;;;4.32;;
11675;SDS011;5894;42.768;23.404;2023-04-24T08:17:35;6.85;;;4.22;;
11675;SDS011;5894;42.768;23.404;2023-04-24T08:20:04;7.88;;;3.97;;
11675;SDS011;5894;42.768;23.404;2023-04-24T08:22:35;12.85;;;6.75;;
11675;SDS011;5894;42.768;23.404;2023-04-24T08:25:02;7.88;;;4.32;;
11675;SDS011;5894;42.768;23.404;2023-04-24T08:27:29;5.40;;;4.10;;
11675;SDS011;5894;42.768;23.404;2023-04-24T08:29:56;5.93;;;4.50;;
11675;SDS011;5894;42.768;23.404;2023-04-24T08:32:23;5.38;;;4.40;;
11675;SDS011;5894;42.768;23.404;2023-04-24T08:34:50;6.10;;;4.18;;
11675;SDS011;5894;42.768;23.404;2023-04-24T08:37:19;8.27;;;4.15;;
11675;SDS011;5894;42.768;23.404;2023-04-24T08:39:46;5.28;;;4.20;;
11675;SDS011;5894;42.768;23.404;2023-04-24T08:42:13;6.38;;;3.90;;
11675;SDS011;5894;42.768;23.404;2023-04-24T08:44:41;6.75;;;4.38;;
11675;SDS011;5894;42.768;23.404;2023-04-24T08:47:09;6.35;;;4.57;;
11675;SDS011;5894;42.768;23.404;2023-04-24T08:49:37;5.25;;;3.80;;
11675;SDS011;5894;42.768;23.404;2023-04-24T08:52:05;5.30;;;4.30;;
11675;SDS011;5894;42.768;23.404;2023-04-24T08:54:33;7.05;;;4.32;;
11675;SDS011;5894;42.768;23.404;2023-04-24T08:57:01;5.50;;;4.20;;
11675;SDS011;5894;42.768;23.404;2023-04-24T08:59:29;10.77;;;4.55;;
11675;SDS011;5894;42.768;23.404;2023-04-24T09:01:56;6.07;;;4.60;;
11675;SDS011;5894;42.768;23.404;2023-04-24T09:04:23;6.03;;;4.28;;
11675;SDS011;5894;42.768;23.404;2023-04-24T09:06:51;6.15;;;4.45;;
11675;SDS011;5894;42.768;23.404;2023-04-24T09:09:21;8.55;;;4.55;;
11675;SDS011;5894;42.768;23.404;2023-04-24T09:11:50;5.55;;;4.10;;
11675;SDS011;5894;42.768;23.404;2023-04-24T09:14:18;5.15;;;4.35;;
11675;SDS011;5894;42.768;23.404;2023-04-24T09:16:46;6.13;;;4.20;;
11675;SDS011;5894;42.768;23.404;2023-04-24T09:19:13;5.57;;;4.43;;
11675;SDS011;5894;42.768;23.404;2023-04-24T09:21:39;7.15;;;4.30;;
11675;SDS011;5894;42.768;23.404;2023-04-24T09:24:07;7.13;;;4.07;;
11675;SDS011;5894;42.768;23.404;2023-04-24T09:26:43;9.88;;;4.18;;
11675;SDS011;5894;42.768;23.404;2023-04-24T09:29:15;10.00;;;4.75;;
11675;SDS011;5894;42.768;23.404;2023-04-24T09:31:42;5.75;;;4.32;;
11675;SDS011;5894;42.768;23.404;2023-04-24T09:34:09;5.63;;;4.20;;
11675;SDS011;5894;42.768;23.404;2023-04-24T09:36:36;4.63;;;4.00;;
11675;SDS011;5894;42.768;23.404;2023-04-24T09:39:06;6.95;;;4.43;;
11675;SDS011;5894;42.768;23.404;2023-04-24T09:41:38;6.18;;;4.30;;
11675;SDS011;5894;42.768;23.404;2023-04-24T09:44:11;6.18;;;4.18;;
11675;SDS011;5894;42.768;23.404;2023-04-24T09:46:40;9.23;;;4.13;;
11675;SDS011;5894;42.768;23.404;2023-04-24T09:49:08;9.98;;;4.70;;
11675;SDS011;5894;42.768;23.404;2023-04-24T09:51:37;7.78;;;4.88;;
11675;SDS011;5894;42.768;23.404;2023-04-24T09:54:11;6.30;;;4.45;;
11675;SDS011;5894;42.768;23.404;2023-04-24T09:56:42;7.85;;;4.55;;
11675;SDS011;5894;42.768;23.404;2023-04-24T09:59:10;7.22;;;4.47;;
11675;SDS011;5894;42.768;23.404;2023-04-24T10:01:37;6.25;;;4.30;;
11675;SDS011;5894;42.768;23.404;2023-04-24T10:04:16;7.28;;;4.40;;
11675;SDS011;5894;42.768;23.404;2023-04-24T10:06:43;5.22;;;3.90;;
11675;SDS011;5894;42.768;23.404;2023-04-24T10:09:10;5.82;;;4.22;;
11675;SDS011;5894;42.768;23.404;2023-04-24T10:11:40;5.88;;;4.28;;
11675;SDS011;5894;42.768;23.404;2023-04-24T10:14:09;5.93;;;4.25;;
11675;SDS011;5894;42.768;23.404;2023-04-24T10:16:37;5.25;;;3.72;;
11675;SDS011;5894;42.768;23.404;2023-04-24T10:19:05;5.35;;;4.20;;
11675;SDS011;5894;42.768;23.404;2023-04-24T10:21:34;7.85;;;4.00;;
11675;SDS011;5894;42.768;23.404;2023-04-24T10:24:03;4.63;;;3.67;;
11675;SDS011;5894;42.768;23.404;2023-04-24T10:26:32;4.68;;;3.63;;
11675;SDS011;5894;42.768;23.404;2023-04-24T10:29:00;5.50;;;4.03;;
11675;SDS011;5894;42.768;23.404;2023-04-24T10:31:30;5.28;;;4.18;;
11675;SDS011;5894;42.768;23.404;2023-04-24T10:33:58;6.07;;;4.13;;
11675;SDS011;5894;42.768;23.404;2023-04-24T10:36:27;7.30;;;4.28;;
11675;SDS011;5894;42.768;23.404;2023-04-24T10:39:00;8.52;;;4.32;;
11675;SDS011;5894;42.768;23.404;2023-04-24T10:41:29;6.93;;;4.50;;
11675;SDS011;5894;42.768;23.404;2023-04-24T10:44:06;12.57;;;8.00;;
11675;SDS011;5894;42.768;23.404;2023-04-24T10:46:33;23.27;;;17.02;;
11675;SDS011;5894;42.768;23.404;2023-04-24T10:49:03;6.40;;;4.95;;
11675;SDS011;5894;42.768;23.404;2023-04-24T10:51:44;7.60;;;5.07;;
11675;SDS011;5894;42.768;23.404;2023-04-24T10:54:24;4.90;;;4.40;;
11675;SDS011;5894;42.768;23.404;2023-04-24T10:56:51;6.82;;;4.18;;
11675;SDS011;5894;42.768;23.404;2023-04-24T10:59:28;4.50;;;3.70;;
11675;SDS011;5894;42.768;23.404;2023-04-24T11:02:02;9.82;;;4.40;;
11675;SDS011;5894;42.768;23.404;2023-04-24T11:04:29;8.13;;;4.22;;
11675;SDS011;5894;42.768;23.404;2023-04-24T11:06:58;6.00;;;3.90;;
11675;SDS011;5894;42.768;23.404;2023-04-24T11:09:27;6.45;;;3.70;;
11675;SDS011;5894;42.768;23.404;2023-04-24T11:12:03;6.65;;;3.90;;
11675;SDS011;5894;42.768;23.404;2023-04-24T11:17:28;8.48;;;4.10;;
11675;SDS011;5894;42.768;23.404;2023-04-24T11:20:00;5.15;;;3.78;;
11675;SDS011;5894;42.768;23.404;2023-04-24T11:22:27;7.28;;;4.40;;
11675;SDS011;5894;42.768;23.404;2023-04-24T11:25:01;6.07;;;3.92;;
11675;SDS011;5894;42.768;23.404;2023-04-24T11:27:32;6.18;;;4.15;;
11675;SDS011;5894;42.768;23.404;2023-04-24T11:30:05;8.82;;;4.25;;
11675;SDS011;5894;42.768;23.404;2023-04-24T11:32:34;5.38;;;4.13;;
11675;SDS011;5894;42.768;23.404;2023-04-24T11:35:04;4.28;;;3.53;;
11675;SDS011;5894;42.768;23.404;2023-04-24T11:37:34;8.50;;;3.80;;
11675;SDS011;5894;42.768;23.404;2023-04-24T11:40:04;16.83;;;4.82;;
11675;SDS011;5894;42.768;23.404;2023-04-24T11:42:35;14.85;;;3.95;;
11675;SDS011;5894;42.768;23.404;2023-04-24T11:45:07;15.77;;;4.43;;
11675;SDS011;5894;42.768;23.404;2023-04-24T11:47:35;6.07;;;3.65;;
11675;SDS011;5894;42.768;23.404;2023-04-24T11:50:03;5.68;;;3.53;;
11675;SDS011;5894;42.768;23.404;2023-04-24T11:52:31;3.65;;;3.35;;
11675;SDS011;5894;42.768;23.404;2023-04-24T11:54:59;4.70;;;3.70;;
11675;SDS011;5894;42.768;23.404;2023-04-24T11:57:27;3.75;;;3.22;;
11675;SDS011;5894;42.768;23.404;2023-04-24T11:59:58;3.25;;;2.95;;
11675;SDS011;5894;42.768;23.404;2023-04-24T12:02:37;7.68;;;2.80;;
11675;SDS011;5894;42.768;23.404;2023-04-24T12:05:04;5.35;;;3.30;;
11675;SDS011;5894;42.768;23.404;2023-04-24T12:07:31;4.30;;;3.40;;
11675;SDS011;5894;42.768;23.404;2023-04-24T12:10:08;4.95;;;3.40;;
11675;SDS011;5894;42.768;23.404;2023-04-24T12:12:36;4.22;;;3.35;;
11675;SDS011;5894;42.768;23.404;2023-04-24T12:15:06;5.15;;;3.58;;
11675;SDS011;5894;42.768;23.404;2023-04-24T12:17:34;5.38;;;3.33;;
11675;SDS011;5894;42.768;23.404;2023-04-24T12:20:02;5.38;;;3.05;;
11675;SDS011;5894;42.768;23.404;2023-04-24T12:22:42;4.40;;;3.40;;
11675;SDS011;5894;42.768;23.404;2023-04-24T12:25:11;6.50;;;3.42;;
11675;SDS011;5894;42.768;23.404;2023-04-24T12:27:39;5.63;;;3.42;;
11675;SDS011;5894;42.768;23.404;2023-04-24T12:30:10;3.80;;;3.45;;
11675;SDS011;5894;42.768;23.404;2023-04-24T12:32:40;4.93;;;3.28;;
11675;SDS011;5894;42.768;23.404;2023-04-24T12:35:08;4.15;;;3.20;;
11675;SDS011;5894;42.768;23.404;2023-04-24T12:37:35;3.63;;;3.30;;
11675;SDS011;5894;42.768;23.404;2023-04-24T12:40:05;3.03;;;2.80;;
11675;SDS011;5894;42.768;23.404;2023-04-24T12:42:34;3.47;;;3.13;;
11675;SDS011;5894;42.768;23.404;2023-04-24T12:45:04;5.18;;;3.00;;
11675;SDS011;5894;42.768;23.404;2023-04-24T12:47:33;4.43;;;3.28;;
11675;SDS011;5894;42.768;23.404;2023-04-24T12:50:01;4.13;;;3.17;;
11675;SDS011;5894;42.768;23.404;2023-04-24T12:52:29;5.15;;;3.15;;
11675;SDS011;5894;42.768;23.404;2023-04-24T12:54:56;3.40;;;3.10;;
11675;SDS011;5894;42.768;23.404;2023-04-24T12:57:25;3.20;;;2.63;;
11675;SDS011;5894;42.768;23.404;2023-04-24T12:59:53;2.95;;;2.55;;
11675;SDS011;5894;42.768;23.404;2023-04-24T13:02:22;6.90;;;2.80;;
11675;SDS011;5894;42.768;23.404;2023-04-24T13:04:49;2.90;;;2.70;;
11675;SDS011;5894;42.768;23.404;2023-04-24T13:07:17;4.72;;;3.08;;
11675;SDS011;5894;42.768;23.404;2023-04-24T13:09:44;3.30;;;2.75;;
11675;SDS011;5894;42.768;23.404;2023-04-24T13:12:11;4.07;;;2.45;;
11675;SDS011;5894;42.768;23.404;2023-04-24T13:14:38;3.90;;;2.65;;
11675;SDS011;5894;42.768;23.404;2023-04-24T13:17:05;3.20;;;2.85;;
11675;SDS011;5894;42.768;23.404;2023-04-24T13:19:36;3.80;;;3.00;;
11675;SDS011;5894;42.768;23.404;2023-04-24T13:22:04;5.05;;;3.13;;
11675;SDS011;5894;42.768;23.404;2023-04-24T13:24:32;7.03;;;3.15;;
11675;SDS011;5894;42.768;23.404;2023-04-24T13:26:58;3.13;;;2.83;;
11675;SDS011;5894;42.768;23.404;2023-04-24T13:29:26;2.90;;;2.65;;
11675;SDS011;5894;42.768;23.404;2023-04-24T13:31:54;5.45;;;2.88;;
11675;SDS011;5894;42.768;23.404;2023-04-24T13:34:21;3.88;;;2.65;;
11675;SDS011;5894;42.768;23.404;2023-04-24T13:36:50;3.15;;;2.78;;
11675;SDS011;5894;42.768;23.404;2023-04-24T13:39:18;2.92;;;2.72;;
11675;SDS011;5894;42.768;23.404;2023-04-24T13:41:45;3.78;;;3.08;;
11675;SDS011;5894;42.768;23.404;2023-04-24T13:44:13;6.95;;;2.90;;
11675;SDS011;5894;42.768;23.404;2023-04-24T13:46:40;3.85;;;3.35;;
11675;SDS011;5894;42.768;23.404;2023-04-24T13:49:08;5.18;;;3.47;;
11675;SDS011;5894;42.768;23.404;2023-04-24T13:51:35;4.88;;;3.28;;
11675;SDS011;5894;42.768;23.404;2023-04-24T13:54:03;4.82;;;3.40;;
11675;SDS011;5894;42.768;23.404;2023-04-24T13:56:30;4.10;;;3.13;;
11675;SDS011;5894;42.768;23.404;2023-04-24T13:58:57;3.92;;;3.30;;
11675;SDS011;5894;42.768;23.404;2023-04-24T14:01:24;4.32;;;3.22;;
11675;SDS011;5894;42.768;23.404;2023-04-24T14:03:51;3.42;;;2.97;;
11675;SDS011;5894;42.768;23.404;2023-04-24T14:06:17;3.58;;;3.22;;
11675;SDS011;5894;42.768;23.404;2023-04-24T14:08:44;3.75;;;2.90;;
11675;SDS011;5894;42.768;23.404;2023-04-24T14:11:13;5.18;;;2.90;;
11675;SDS011;5894;42.768;23.404;2023-04-24T14:13:40;4.38;;;2.67;;
11675;SDS011;5894;42.768;23.404;2023-04-24T14:16:08;3.42;;;2.65;;
11675;SDS011;5894;42.768;23.404;2023-04-24T14:18:34;4.78;;;3.13;;
11675;SDS011;5894;42.768;23.404;2023-04-24T14:21:01;4.13;;;3.10;;
11675;SDS011;5894;42.768;23.404;2023-04-24T14:23:28;3.00;;;2.80;;
11675;SDS011;5894;42.768;23.404;2023-04-24T14:25:55;5.15;;;2.70;;
11675;SDS011;5894;42.768;23.404;2023-04-24T14:28:24;3.15;;;2.90;;
11675;SDS011;5894;42.768;23.404;2023-04-24T14:30:51;4.65;;;3.05;;
11675;SDS011;5894;42.768;23.404;2023-04-24T14:33:18;4.05;;;3.35;;
11675;SDS011;5894;42.768;23.404;2023-04-24T14:35:45;4.45;;;3.10;;
11675;SDS011;5894;42.768;23.404;2023-04-24T14:38:12;5.50;;;4.63;;
11675;SDS011;5894;42.768;23.404;2023-04-24T14:40:39;3.45;;;2.88;;
11675;SDS011;5894;42.768;23.404;2023-04-24T14:43:06;7.35;;;3.70;;
11675;SDS011;5894;42.768;23.404;2023-04-24T14:45:34;4.43;;;3.47;;
11675;SDS011;5894;42.768;23.404;2023-04-24T14:48:03;7.90;;;3.67;;
11675;SDS011;5894;42.768;23.404;2023-04-24T14:50:30;3.65;;;3.22;;
11675;SDS011;5894;42.768;23.404;2023-04-24T14:52:57;4.93;;;3.35;;
11675;SDS011;5894;42.768;23.404;2023-04-24T14:55:23;4.93;;;3.83;;
11675;SDS011;5894;42.768;23.404;2023-04-24T14:57:51;5.68;;;3.15;;